Terminal Aerodrome Forecast
Issued by NWS Northern Indiana

Home | Current Version | Previous Version | Text Only | Print | Product List | Glossary Off
Versions: 1 2 3 4 5 6 7 8 9 10 11 12 13

000
FTUS43 KIWX 261100
TAFFWA
TAF
KFWA 261120Z 2612/2712 19010KT P6SM BKN012
     FM261400 20012KT P6SM BKN040
     FM261800 19017G25KT P6SM BKN050
      TEMPO 2618/2622 4SM -TSRA BKN025CB
     FM270200 21015G22KT P6SM BKN060=

USA.gov is the U.S. government's official web portal to all federal, state and local government web resources and services.